Terminal Aerodrome Forecast
Issued by NWS

Home | Current Version | Previous Version | Text Only | Print | Product List | Glossary On
Versions: 1 2 3 4 5 6 7 8 9 10 11 12 13 14 15 16 17 18
000
FTUS46 KMTR 210700 AAA
TAFSTS
TAF AMD
KSTS 210704Z 2107/2206 19004KT P6SM OVC008
     FM211600 VRB03KT P6SM OVC015
     FM212000 19008KT P6SM SKC
     FM220300 VRB03KT P6SM SCT012=

USA.gov is the U.S. government's official web portal to all federal, state and local government web resources and services.